Terminal Aerodrome Forecast
Issued by NWS Knoxville/Tri Cities, TN

Home | Current Version | Previous Version | Text Only | Print | Product List | Glossary On
Versions: 1 2 3 4 5 6 7 8 9 10 11 12 13 14 15 16 17 18 19 20 21 22 23 24 25 26 27 28 29 30 31 32 33 34 35 36 37 38 39 40 41 42 43 44
000
FTUS44 KMRX 301004 AAA
TAFCHA
TAF AMD
KCHA 301004Z 3010/3106 00000KT P6SM SCT100
      TEMPO 3010/3013 4SM BR SCT003
     FM301300 18006KT P6SM SCT040
     FM301900 18010KT P6SM SCT050 SCT250
     FM310100 18004KT P6SM SCT050 BKN250=

USA.gov is the U.S. government's official web portal to all federal, state and local government web resources and services.